Time;durP1;ratioP1;P1;durP2;ratioP2;P2;SDS_P1;SDS_P2;PMS_P1;PMS_P2;Temp;Humidity;BMP_temperature;BMP_pressure;BME280_temperature;BME280_humidity;BME280_pressure;Samples;Min_cycle;Max_cycle;Signal;HPM_P1;HPM_P2
2022/09/30 06:27:33;;;;;;;;;0.00;0.00;;;;;;;;6254616;22;46019;31
2022/09/30 06:29:59;;;;;;;;;0.00;0.00;;;;;;;;6204316;22;45429;-89
2022/09/30 06:32:25;;;;;;;;;0.00;0.00;;;;;;;;6155514;23;46993;-92
2022/09/30 06:34:50;;;;;;;;;0.00;0.00;;;;;;;;6181831;23;45363;-91
2022/09/30 06:37:17;;;;;;;;;0.00;0.00;;;;;;;;6204925;22;45420;-93
2022/09/30 06:39:42;;;;;;;;;0.00;0.00;;;;;;;;6155493;23;45617;-94
2022/09/30 06:42:07;;;;;;;;;0.00;0.00;;;;;;;;6154075;23;48417;-92
2022/09/30 06:44:33;;;;;;;;;0.00;0.00;;;;;;;;6181519;23;45287;-92
2022/09/30 06:46:59;;;;;;;;;0.00;0.00;;;;;;;;6182605;23;45181;-92
2022/09/30 06:49:25;;;;;;;;;0.00;0.00;;;;;;;;6156045;23;45470;-93
2022/09/30 06:51:50;;;;;;;;;0.00;0.00;;;;;;;;6155407;23;47434;-94
2022/09/30 06:54:15;;;;;;;;;0.00;0.00;;;;;;;;6155449;23;45341;-91
2022/09/30 06:56:41;;;;;;;;;0.00;0.00;;;;;;;;6155220;23;45342;-92
2022/09/30 06:59:06;;;;;;;;;0.00;0.00;;;;;;;;6183092;23;45339;-92
2022/09/30 07:01:31;;;;;;;;;0.00;0.00;;;;;;;;6184375;23;45308;-90
2022/09/30 07:03:56;;;;;;;;;0.00;0.00;;;;;;;;6155663;23;45315;-90
2022/09/30 07:06:22;;;;;;;;;0.00;0.00;;;;;;;;6153652;23;45489;-93
2022/09/30 07:08:47;;;;;;;;;0.00;0.00;;;;;;;;6155167;23;45331;-94
2022/09/30 07:11:16;;;;;;;;;0.00;0.00;;;;;;;;6156285;23;48101;-96
2022/09/30 07:13:42;;;;;;;;;0.00;0.00;;;;;;;;6190836;22;45239;-96
2022/09/30 07:16:07;;;;;;;;;0.00;0.00;;;;;;;;6238479;22;45264;-95
2022/09/30 07:18:33;;;;;;;;;0.00;0.00;;;;;;;;6289364;22;48432;-96
2022/09/30 07:20:58;;;;;;;;;0.00;0.00;;;;;;;;6286429;22;45451;-94
2022/09/30 07:23:25;;;;;;;;;0.00;0.00;;;;;;;;6262178;22;44837;-96
2022/09/30 07:25:52;;;;;;;;;0.00;0.00;;;;;;;;6264476;22;44650;-96
2022/09/30 07:28:18;;;;;;;;;0.00;0.00;;;;;;;;6256479;22;45651;-96
2022/09/30 07:30:43;;;;;;;;;0.00;0.00;;;;;;;;6260463;22;46079;-95
2022/09/30 07:33:09;;;;;;;;;0.00;0.00;;;;;;;;6250138;22;45666;-94
2022/09/30 07:35:36;;;;;;;;;0.00;0.00;;;;;;;;6247991;22;45341;-96
2022/09/30 07:38:02;;;;;;;;;0.00;0.00;;;;;;;;6252481;22;45486;-93
2022/09/30 07:40:30;;;;;;;;;0.00;0.00;;;;;;;;6250285;22;46903;-94
2022/09/30 07:42:56;;;;;;;;;0.00;0.00;;;;;;;;6289493;22;45211;-96
2022/09/30 07:45:24;;;;;;;;;0.00;0.00;;;;;;;;6284259;22;45236;-95
2022/09/30 07:55:34;;;;;;;;;0.00;0.00;;;;;;;;6253977;22;45597;-96
2022/09/30 07:57:59;;;;;;;;;0.00;0.00;;;;;;;;6241781;22;45369;-96
2022/09/30 08:00:24;;;;;;;;;0.00;0.00;;;;;;;;6243935;22;45321;-95
2022/09/30 08:02:49;;;;;;;;;0.00;0.00;;;;;;;;6243866;22;45377;-96
2022/09/30 08:05:14;;;;;;;;;0.00;0.00;;;;;;;;6245308;22;45334;-94
2022/09/30 08:07:39;;;;;;;;;0.00;0.00;;;;;;;;6243036;22;45629;-96
2022/09/30 08:10:05;;;;;;;;;0.00;0.00;;;;;;;;6245892;22;46950;-95
2022/09/30 08:12:30;;;;;;;;;0.00;0.00;;;;;;;;6241918;22;45411;-95
2022/09/30 08:14:55;;;;;;;;;0.00;0.00;;;;;;;;6243373;22;45317;-96
2022/09/30 08:17:21;;;;;;;;;0.00;0.00;;;;;;;;6243595;22;45310;-96
2022/09/30 08:19:46;;;;;;;;;0.00;0.00;;;;;;;;6243697;22;46033;-95
2022/09/30 08:22:12;;;;;;;;;0.00;0.00;;;;;;;;6242526;22;45244;-95
2022/09/30 08:24:37;;;;;;;;;0.00;0.00;;;;;;;;6241977;22;45280;-96
2022/09/30 08:27:03;;;;;;;;;0.00;0.00;;;;;;;;6242115;22;45762;-94
2022/09/30 08:29:28;;;;;;;;;0.00;0.00;;;;;;;;6246197;22;46646;-96
2022/09/30 08:31:53;;;;;;;;;0.00;0.00;;;;;;;;6246513;22;45238;-96
2022/09/30 08:34:19;;;;;;;;;0.00;0.00;;;;;;;;6241984;22;45215;-95
2022/09/30 08:36:45;;;;;;;;;0.00;0.00;;;;;;;;6244274;22;45424;-95
2022/09/30 08:39:10;;;;;;;;;0.00;0.00;;;;;;;;6244146;22;45616;-95
2022/09/30 08:41:45;;;;;;;;;0.00;0.00;;;;;;;;6243447;22;45369;-96
2022/09/30 08:44:16;;;;;;;;;0.00;0.00;;;;;;;;6243513;22;45358;-95
2022/09/30 08:46:51;;;;;;;;;0.00;0.00;;;;;;;;6242765;22;45176;-95
2022/09/30 08:49:22;;;;;;;;;0.00;0.00;;;;;;;;6243389;22;47331;-95
2022/09/30 08:51:49;;;;;;;;;0.00;0.00;;;;;;;;6243115;22;45369;-95
2022/09/30 08:54:16;;;;;;;;;0.00;0.00;;;;;;;;6244381;22;45472;-96
2022/09/30 08:56:43;;;;;;;;;0.00;0.00;;;;;;;;6253996;22;45501;-95
2022/09/30 08:59:25;;;;;;;;;0.00;0.00;;;;;;;;6250429;22;47351;-96
2022/09/30 09:01:54;;;;;;;;;0.00;0.00;;;;;;;;6254143;22;45409;-95
2022/09/30 09:04:20;;;;;;;;;0.00;0.00;;;;;;;;6271846;22;45707;-96
2022/09/30 09:06:53;;;;;;;;;0.00;0.00;;;;;;;;6294740;22;45436;-96
2022/09/30 09:12:15;;;;;;;;;0.00;0.00;;;;;;;;6288632;22;44676;-96
2022/09/30 09:14:52;;;;;;;;;0.00;0.00;;;;;;;;6261092;22;45389;-96
2022/09/30 09:17:36;;;;;;;;;0.00;0.00;;;;;;;;6253008;22;45345;-96
2022/09/30 09:20:01;;;;;;;;;0.00;0.00;;;;;;;;6258563;22;46308;-96
2022/09/30 09:22:27;;;;;;;;;0.00;0.00;;;;;;;;6251503;22;45312;-96
2022/09/30 09:24:53;;;;;;;;;0.00;0.00;;;;;;;;6255386;22;45226;-95
2022/09/30 09:27:28;;;;;;;;;0.00;0.00;;;;;;;;6265008;22;45613;-96
2022/09/30 09:30:00;;;;;;;;;0.00;0.00;;;;;;;;6256133;22;46253;-96
2022/09/30 09:32:26;;;;;;;;;0.00;0.00;;;;;;;;6252231;22;45387;-96
2022/09/30 09:34:57;;;;;;;;;0.00;0.00;;;;;;;;6254004;22;45402;-95
2022/09/30 09:40:25;;;;;;;;;0.00;0.00;;;;;;;;6281180;22;45317;-94
2022/09/30 09:42:56;;;;;;;;;0.00;0.00;;;;;;;;6281812;22;45200;-96
2022/09/30 09:45:22;;;;;;;;;0.00;0.00;;;;;;;;6251930;22;45325;-96
2022/09/30 09:47:51;;;;;;;;;0.00;0.00;;;;;;;;6282387;22;45241;-96
2022/09/30 09:50:23;;;;;;;;;0.00;0.00;;;;;;;;6254260;22;46286;-96
2022/09/30 09:52:51;;;;;;;;;0.00;0.00;;;;;;;;6226819;22;45212;-96
2022/09/30 09:55:19;;;;;;;;;0.00;0.00;;;;;;;;6276536;22;45222;-95
2022/09/30 09:57:45;;;;;;;;;0.00;0.00;;;;;;;;6248234;22;45330;-95
2022/09/30 10:02:57;;;;;;;;;0.00;0.00;;;;;;;;6275611;22;45299;-94
2022/09/30 10:05:25;;;;;;;;;0.00;0.00;;;;;;;;6248138;22;45224;-94
2022/09/30 10:08:06;;;;;;;;;0.00;0.00;;;;;;;;6247367;22;45654;-95
2022/09/30 10:10:43;;;;;;;;;0.00;0.00;;;;;;;;6246519;22;48007;-94
2022/09/30 10:13:19;;;;;;;;;0.00;0.00;;;;;;;;6248632;22;45328;-94
2022/09/30 10:15:45;;;;;;;;;0.00;0.00;;;;;;;;6248549;22;45264;-95
2022/09/30 10:18:25;;;;;;;;;0.00;0.00;;;;;;;;6248648;22;45364;-93
2022/09/30 10:20:52;;;;;;;;;0.00;0.00;;;;;;;;6247812;22;48119;-92
2022/09/30 10:23:18;;;;;;;;;0.00;0.00;;;;;;;;6276725;22;45279;-94
2022/09/30 10:25:54;;;;;;;;;0.00;0.00;;;;;;;;6278760;22;45143;-96
2022/09/30 10:28:22;;;;;;;;;0.00;0.00;;;;;;;;6248729;22;45246;-93
2022/09/30 10:30:51;;;;;;;;;0.00;0.00;;;;;;;;6280784;22;46478;-96
2022/09/30 10:33:22;;;;;;;;;0.00;0.00;;;;;;;;6254356;22;45335;-94
2022/09/30 10:36:02;;;;;;;;;0.00;0.00;;;;;;;;6280413;22;45297;-96
2022/09/30 10:38:28;;;;;;;;;1.00;1.00;;;;;;;;6262105;22;45084;-96
2022/09/30 10:40:54;;;;;;;;;0.00;0.00;;;;;;;;6269918;22;46864;-95
2022/09/30 10:43:44;;;;;;;;;0.00;0.00;;;;;;;;6312830;22;45417;-95
2022/09/30 10:46:10;;;;;;;;;0.00;0.00;;;;;;;;6277456;22;45553;-92
2022/09/30 10:48:37;;;;;;;;;0.00;0.00;;;;;;;;6284542;22;45397;-95
2022/09/30 10:51:03;;;;;;;;;0.00;0.00;;;;;;;;6275551;22;46471;-93
2022/09/30 10:53:33;;;;;;;;;0.00;0.00;;;;;;;;6290867;22;45263;-96
2022/09/30 10:56:00;;;;;;;;;0.00;0.00;;;;;;;;6288955;22;45784;-96
2022/09/30 10:58:25;;;;;;;;;0.00;0.00;;;;;;;;6292981;22;45398;-95
2022/09/30 11:01:13;;;;;;;;;0.00;0.00;;;;;;;;6286849;22;46010;-95
2022/09/30 11:03:44;;;;;;;;;0.00;0.00;;;;;;;;6310409;22;45766;-96
2022/09/30 11:06:10;;;;;;;;;0.00;0.00;;;;;;;;6314363;22;44712;-96
2022/09/30 11:08:42;;;;;;;;;0.00;0.00;;;;;;;;6311602;22;45548;-94
2022/09/30 11:11:17;;;;;;;;;0.00;0.00;;;;;;;;6290282;22;47131;-94
2022/09/30 11:13:49;;;;;;;;;0.00;0.00;;;;;;;;6282115;22;45894;-96
2022/09/30 11:16:28;;;;;;;;;0.00;0.00;;;;;;;;6316565;22;45273;-95
2022/09/30 11:19:08;;;;;;;;;0.00;0.00;;;;;;;;6287172;22;45505;-96
2022/09/30 11:21:47;;;;;;;;;0.00;0.00;;;;;;;;6277223;22;46166;-95
2022/09/30 11:24:33;;;;;;;;;0.00;0.00;;;;;;;;6286561;22;45340;-92
2022/09/30 11:27:10;;;;;;;;;0.00;0.00;;;;;;;;6285585;22;45326;-92
2022/09/30 11:29:41;;;;;;;;;0.00;0.00;;;;;;;;6276582;22;45243;-91
2022/09/30 11:32:07;;;;;;;;;0.00;0.00;;;;;;;;6278706;22;47060;-93
2022/09/30 11:35:01;;;;;;;;;1.50;1.50;;;;;;;;6278025;22;45433;-92
2022/09/30 11:37:43;;;;;;;;;0.00;0.00;;;;;;;;6206584;22;45268;-89
2022/09/30 11:40:18;;;;;;;;;0.00;0.00;;;;;;;;6212157;22;45437;-90
2022/09/30 11:42:53;;;;;;;;;0.00;0.00;;;;;;;;6184825;22;47194;-90
2022/09/30 11:45:37;;;;;;;;;0.00;0.00;;;;;;;;6210106;22;45345;-91
2022/09/30 11:48:11;;;;;;;;;0.00;0.00;;;;;;;;6183460;22;45611;-90
2022/09/30 11:50:39;;;;;;;;;0.00;0.00;;;;;;;;6184127;22;45374;-91
2022/09/30 11:53:07;;;;;;;;;0.00;0.00;;;;;;;;6208248;22;45470;-91
2022/09/30 11:55:32;;;;;;;;;0.00;0.00;;;;;;;;6182472;22;46090;-91
2022/09/30 11:58:04;;;;;;;;;0.00;0.00;;;;;;;;6208989;22;45417;-90
2022/09/30 12:00:32;;;;;;;;;0.00;0.00;;;;;;;;6210725;22;45480;-91
2022/09/30 12:03:12;;;;;;;;;0.00;0.00;;;;;;;;6180993;22;47011;-91
2022/09/30 12:05:46;;;;;;;;;0.00;0.00;;;;;;;;6208932;22;45276;-90
2022/09/30 12:08:17;;;;;;;;;0.00;0.00;;;;;;;;6209039;22;45478;-90
2022/09/30 12:10:45;;;;;;;;;0.00;0.00;;;;;;;;6184720;22;45915;-91
2022/09/30 12:13:15;;;;;;;;;0.00;0.00;;;;;;;;6205770;22;47110;-91
2022/09/30 12:15:43;;;;;;;;;0.00;0.00;;;;;;;;6304790;22;45297;-89
2022/09/30 12:18:13;;;;;;;;;0.00;0.00;;;;;;;;6305288;22;46147;-90
2022/09/30 12:20:46;;;;;;;;;0.00;0.00;;;;;;;;6277613;22;45602;-91
2022/09/30 12:23:50;;;;;;;;;0.00;0.00;;;;;;;;6273861;22;48339;-89
2022/09/30 12:26:16;;;;;;;;;0.00;0.00;;;;;;;;6207939;22;46310;-90
2022/09/30 12:31:34;;;;;;;;;0.00;0.00;;;;;;;;6212720;22;45530;-89
2022/09/30 12:34:15;;;;;;;;;0.00;0.00;;;;;;;;6187256;22;47175;-89
2022/09/30 12:36:57;;;;;;;;;0.00;0.00;;;;;;;;6211753;22;45401;-91
2022/09/30 12:39:33;;;;;;;;;0.00;0.00;;;;;;;;6210000;22;45357;-90
2022/09/30 12:41:59;;;;;;;;;0.00;0.00;;;;;;;;6182626;22;45349;-91
2022/09/30 12:44:43;;;;;;;;;0.00;0.00;;;;;;;;6181098;22;48002;-89
2022/09/30 12:47:21;;;;;;;;;0.00;0.00;;;;;;;;6180989;22;45848;-90
2022/09/30 12:49:47;;;;;;;;;0.00;0.00;;;;;;;;6208124;22;45409;-90
2022/09/30 12:52:14;;;;;;;;;0.00;0.00;;;;;;;;6180317;22;45706;-89
2022/09/30 12:54:42;;;;;;;;;0.00;0.00;;;;;;;;6207229;22;45723;-90
2022/09/30 12:57:08;;;;;;;;;0.00;0.00;;;;;;;;6231261;22;45481;-90
2022/09/30 12:59:35;;;;;;;;;0.00;0.00;;;;;;;;6304161;22;45259;-88
2022/09/30 13:02:02;;;;;;;;;0.00;0.00;;;;;;;;6275057;22;45901;-89
2022/09/30 13:04:32;;;;;;;;;0.00;0.00;;;;;;;;6302253;22;45472;-89
2022/09/30 13:06:57;;;;;;;;;0.00;0.00;;;;;;;;6275962;22;45496;-90
2022/09/30 13:09:25;;;;;;;;;0.00;0.00;;;;;;;;6274656;22;45267;-89
2022/09/30 13:11:53;;;;;;;;;0.00;0.00;;;;;;;;6303041;22;45348;-89
2022/09/30 13:14:33;;;;;;;;;0.00;0.00;;;;;;;;6275973;22;48063;-89
2022/09/30 13:17:07;;;;;;;;;0.00;0.00;;;;;;;;6303050;22;45286;-90
2022/09/30 13:19:36;;;;;;;;;0.00;0.00;;;;;;;;6275070;22;45388;-89
2022/09/30 13:25:01;;;;;;;;;0.00;0.00;;;;;;;;6303618;22;45758;-89
2022/09/30 13:27:34;;;;;;;;;0.00;0.00;;;;;;;;6273307;22;45960;-88
2022/09/30 13:30:00;;;;;;;;;0.00;0.00;;;;;;;;6274283;22;45343;-90
2022/09/30 13:32:50;;;;;;;;;0.00;0.00;;;;;;;;6302512;22;45597;-90
2022/09/30 13:35:32;;;;;;;;;0.00;0.00;;;;;;;;6288499;22;47146;-88
2022/09/30 13:38:13;;;;;;;;;0.00;0.00;;;;;;;;6273927;22;45274;-89
2022/09/30 13:40:49;;;;;;;;;0.00;0.00;;;;;;;;6275242;22;45876;-88
2022/09/30 13:43:21;;;;;;;;;0.00;0.00;;;;;;;;6300265;22;45540;-89
2022/09/30 13:45:48;;;;;;;;;0.00;0.00;;;;;;;;6273475;22;47049;-89
2022/09/30 13:48:15;;;;;;;;;0.00;0.00;;;;;;;;6301734;22;45360;-89
2022/09/30 13:50:45;;;;;;;;;0.00;0.00;;;;;;;;6274845;22;45425;-89
2022/09/30 13:53:21;;;;;;;;;0.00;0.00;;;;;;;;6299613;22;45258;-90
2022/09/30 13:55:52;;;;;;;;;0.00;0.00;;;;;;;;6274277;22;47338;-91
2022/09/30 13:58:36;;;;;;;;;0.00;0.00;;;;;;;;6302528;22;45262;-89
2022/09/30 14:01:01;;;;;;;;;0.00;0.00;;;;;;;;6301734;22;45407;-91
2022/09/30 14:03:47;;;;;;;;;0.00;0.00;;;;;;;;6273877;22;45488;-91
2022/09/30 14:06:38;;;;;;;;;0.00;0.00;;;;;;;;6282569;22;47062;-91
2022/09/30 14:09:15;;;;;;;;;0.00;0.00;;;;;;;;6205187;22;45954;-91
2022/09/30 14:11:40;;;;;;;;;0.00;0.00;;;;;;;;6181886;22;45319;-90
2022/09/30 14:14:24;;;;;;;;;0.00;0.00;;;;;;;;6182344;22;45602;-93
2022/09/30 14:17:14;;;;;;;;;0.00;0.00;;;;;;;;6180417;22;47314;-90
2022/09/30 14:19:57;;;;;;;;;0.00;0.00;;;;;;;;6181868;22;45814;-93
2022/09/30 14:22:25;;;;;;;;;0.00;0.00;;;;;;;;6181414;22;45348;-92
2022/09/30 14:24:51;;;;;;;;;0.00;0.00;;;;;;;;6181914;22;45390;-91
2022/09/30 14:27:19;;;;;;;;;0.00;0.00;;;;;;;;6207892;22;46521;-93
2022/09/30 14:29:47;;;;;;;;;0.00;0.00;;;;;;;;6205680;22;45406;-95
2022/09/30 14:32:13;;;;;;;;;0.00;0.00;;;;;;;;6184377;22;45337;-93
2022/09/30 14:34:39;;;;;;;;;0.00;0.00;;;;;;;;6209581;22;45608;-92
2022/09/30 14:37:05;;;;;;;;;0.00;0.00;;;;;;;;6184374;22;47915;-92
2022/09/30 14:39:31;;;;;;;;;0.00;0.00;;;;;;;;6180542;22;45481;-90
2022/09/30 14:41:58;;;;;;;;;0.00;0.00;;;;;;;;6180714;22;45276;-94
2022/09/30 14:44:25;;;;;;;;;0.00;0.00;;;;;;;;6183625;22;45351;-95
2022/09/30 14:47:01;;;;;;;;;0.00;0.00;;;;;;;;6276018;22;48167;-96
2022/09/30 14:49:36;;;;;;;;;0.00;0.00;;;;;;;;6228430;22;46144;-96
2022/09/30 14:52:02;;;;;;;;;0.00;0.00;;;;;;;;6248650;22;45708;-93
2022/09/30 14:54:28;;;;;;;;;0.00;0.00;;;;;;;;6241191;22;45552;-94
2022/09/30 14:56:54;;;;;;;;;0.00;0.00;;;;;;;;6239204;22;46901;-94
2022/09/30 14:59:19;;;;;;;;;0.00;0.00;;;;;;;;6240967;22;45403;-96
2022/09/30 15:01:46;;;;;;;;;0.00;0.00;;;;;;;;6240049;22;45420;-92
2022/09/30 15:04:17;;;;;;;;;0.00;0.00;;;;;;;;6241200;22;45461;-95
2022/09/30 15:06:45;;;;;;;;;0.00;0.00;;;;;;;;6241400;22;46142;-93
2022/09/30 15:09:21;;;;;;;;;0.00;0.00;;;;;;;;6237864;22;45527;-95
2022/09/30 15:11:47;;;;;;;;;0.00;0.00;;;;;;;;6234017;22;45352;-95
2022/09/30 15:14:17;;;;;;;;;0.00;0.00;;;;;;;;6239451;22;45430;-93
2022/09/30 15:16:45;;;;;;;;;0.00;0.00;;;;;;;;6240030;22;48117;-95
2022/09/30 15:19:16;;;;;;;;;0.00;0.00;;;;;;;;6239587;22;46023;-96
2022/09/30 15:21:43;;;;;;;;;0.00;0.00;;;;;;;;6239938;22;45425;-93
2022/09/30 15:24:09;;;;;;;;;0.00;0.00;;;;;;;;6238509;22;45499;-96
2022/09/30 15:26:34;;;;;;;;;0.00;0.00;;;;;;;;6239238;22;47231;-96
2022/09/30 15:29:02;;;;;;;;;0.00;0.00;;;;;;;;6243460;22;45384;-95
2022/09/30 15:31:28;;;;;;;;;0.00;0.00;;;;;;;;6240433;22;45617;-91
2022/09/30 15:34:11;;;;;;;;;0.00;0.00;;;;;;;;6239535;22;45326;-90
2022/09/30 15:36:37;;;;;;;;;0.00;0.00;;;;;;;;6238412;22;48200;-94
2022/09/30 15:39:03;;;;;;;;;0.00;0.00;;;;;;;;6240845;22;45454;-95
2022/09/30 15:41:28;;;;;;;;;0.00;0.00;;;;;;;;6240113;22;45375;-95
2022/09/30 15:43:53;;;;;;;;;0.00;0.00;;;;;;;;6240446;22;45409;-96
2022/09/30 15:46:37;;;;;;;;;0.00;0.00;;;;;;;;6238884;22;47098;-96
2022/09/30 15:49:04;;;;;;;;;0.00;0.00;;;;;;;;6241593;22;45834;-93
2022/09/30 15:51:29;;;;;;;;;0.00;0.00;;;;;;;;6277361;22;45359;-93
2022/09/30 15:53:59;;;;;;;;;0.00;0.00;;;;;;;;6275725;22;45634;-94
2022/09/30 15:56:34;;;;;;;;;0.00;0.00;;;;;;;;6275925;22;47037;-92
2022/09/30 15:59:01;;;;;;;;;0.00;0.00;;;;;;;;6288731;22;45492;-92
2022/09/30 16:01:45;;;;;;;;;0.00;0.00;;;;;;;;6319668;22;45258;-93
2022/09/30 16:04:23;;;;;;;;;0.00;0.00;;;;;;;;6301831;22;45342;-92
2022/09/30 16:06:53;;;;;;;;;0.00;0.00;;;;;;;;6273980;22;48100;-94
2022/09/30 16:09:19;;;;;;;;;0.00;0.00;;;;;;;;6275414;22;45886;-93
2022/09/30 16:11:47;;;;;;;;;0.00;0.00;;;;;;;;6303685;22;45263;-90
2022/09/30 16:14:25;;;;;;;;;0.00;0.00;;;;;;;;6274680;22;45608;-96
2022/09/30 16:16:51;;;;;;;;;0.00;0.00;;;;;;;;6273811;22;46949;-91
2022/09/30 16:19:17;;;;;;;;;0.00;0.00;;;;;;;;6273404;22;45903;-91
2022/09/30 16:21:49;;;;;;;;;0.00;0.00;;;;;;;;6271889;22;45378;-92
2022/09/30 16:24:22;;;;;;;;;0.00;0.00;;;;;;;;6274986;22;45436;-92
2022/09/30 16:26:51;;;;;;;;;0.00;0.00;;;;;;;;6278223;22;48206;-92
2022/09/30 16:29:17;;;;;;;;;0.00;0.00;;;;;;;;6278045;22;45222;-91
2022/09/30 16:31:43;;;;;;;;;0.00;0.00;;;;;;;;6276744;22;45341;-94
2022/09/30 16:34:17;;;;;;;;;0.00;0.00;;;;;;;;6306788;22;45578;-92
2022/09/30 16:36:43;;;;;;;;;0.00;0.00;;;;;;;;6277805;22;48038;-91
2022/09/30 16:39:11;;;;;;;;;0.00;0.00;;;;;;;;6300738;22;45719;-92
2022/09/30 16:41:37;;;;;;;;;0.00;0.00;;;;;;;;6274896;22;45342;-91
2022/09/30 16:44:02;;;;;;;;;0.00;0.00;;;;;;;;6277044;22;45772;-92
2022/09/30 16:46:27;;;;;;;;;0.00;0.00;;;;;;;;6275755;22;47104;-93
2022/09/30 16:48:53;;;;;;;;;0.00;0.00;;;;;;;;6274840;22;45693;-93
2022/09/30 16:51:18;;;;;;;;;0.00;0.00;;;;;;;;6274729;22;45382;-93
2022/09/30 16:53:46;;;;;;;;;0.00;0.00;;;;;;;;6277783;22;45179;-91
2022/09/30 16:56:15;;;;;;;;;0.00;0.00;;;;;;;;6276060;22;47091;-90
2022/09/30 16:58:42;;;;;;;;;0.00;0.00;;;;;;;;6305207;22;45400;-91
2022/09/30 17:01:27;;;;;;;;;0.00;0.00;;;;;;;;6278332;22;45425;-92
2022/09/30 17:03:54;;;;;;;;;0.00;0.00;;;;;;;;6276856;22;45529;-92
2022/09/30 17:06:24;;;;;;;;;0.00;0.00;;;;;;;;6272775;22;47888;-92
2022/09/30 17:08:50;;;;;;;;;0.00;0.00;;;;;;;;6277972;22;45334;-91
2022/09/30 17:11:15;;;;;;;;;0.00;0.00;;;;;;;;6276901;22;45389;-91
2022/09/30 17:13:41;;;;;;;;;0.00;0.00;;;;;;;;6275075;22;45490;-93
2022/09/30 17:16:07;;;;;;;;;0.00;0.00;;;;;;;;6275755;22;48357;-90
2022/09/30 17:18:32;;;;;;;;;0.00;0.00;;;;;;;;6276143;22;45315;-92
2022/09/30 17:20:59;;;;;;;;;0.00;0.00;;;;;;;;6276978;22;45424;-91
2022/09/30 17:23:25;;;;;;;;;0.00;0.00;;;;;;;;6305373;22;45528;-95
2022/09/30 17:25:50;;;;;;;;;0.00;0.00;;;;;;;;6274393;22;48500;-95
2022/09/30 17:28:16;;;;;;;;;0.00;0.00;;;;;;;;6279696;22;45734;-93
2022/09/30 17:30:43;;;;;;;;;0.00;0.00;;;;;;;;6274663;22;45336;-94
2022/09/30 17:33:08;;;;;;;;;0.00;0.00;;;;;;;;6274593;22;45345;-92
2022/09/30 17:35:35;;;;;;;;;0.00;0.00;;;;;;;;6272958;22;48125;-94
2022/09/30 17:38:00;;;;;;;;;0.00;0.00;;;;;;;;6273026;22;45394;-92
2022/09/30 17:43:13;;;;;;;;;0.00;0.00;;;;;;;;6207814;22;45445;-94
2022/09/30 17:45:42;;;;;;;;;0.00;0.00;;;;;;;;6210130;22;47184;-94
2022/09/30 17:48:08;;;;;;;;;0.00;0.00;;;;;;;;6209751;22;45677;-95
2022/09/30 17:50:35;;;;;;;;;0.00;0.00;;;;;;;;6209852;22;45447;-93
2022/09/30 17:53:01;;;;;;;;;0.00;0.00;;;;;;;;6209406;22;44810;-94
2022/09/30 17:55:27;;;;;;;;;0.00;0.00;;;;;;;;6208955;22;48149;-94
2022/09/30 17:57:54;;;;;;;;;0.00;0.00;;;;;;;;6180886;22;45993;-94
2022/09/30 18:00:19;;;;;;;;;0.00;0.00;;;;;;;;6207672;22;45402;-93
2022/09/30 18:02:45;;;;;;;;;0.00;0.00;;;;;;;;6206690;22;45455;-93
2022/09/30 18:05:10;;;;;;;;;0.00;0.00;;;;;;;;6207861;22;46254;-93
2022/09/30 18:07:36;;;;;;;;;0.00;0.00;;;;;;;;6185082;22;45351;-96
2022/09/30 18:10:01;;;;;;;;;0.00;0.00;;;;;;;;6186563;22;45393;-96
2022/09/30 18:12:30;;;;;;;;;0.00;0.00;;;;;;;;6210627;22;45453;-96
2022/09/30 18:14:58;;;;;;;;;0.00;0.00;;;;;;;;6225431;22;47584;-96
2022/09/30 18:32:54;;;;;;;;;0.00;0.00;;;;;;;;6294574;22;45195;-90
2022/09/30 18:35:20;;;;;;;;;0.00;0.00;;;;;;;;6302541;22;45737;-93
2022/09/30 18:37:48;;;;;;;;;0.00;0.00;;;;;;;;6276918;22;45829;-92
2022/09/30 18:40:16;;;;;;;;;0.00;0.00;;;;;;;;6275202;22;45415;-92
2022/09/30 18:42:45;;;;;;;;;0.00;0.00;;;;;;;;6276146;22;45443;-93
2022/09/30 18:45:11;;;;;;;;;0.00;0.00;;;;;;;;6306107;22;45234;-91
2022/09/30 18:47:41;;;;;;;;;0.00;0.00;;;;;;;;6300988;22;45834;-91
2022/09/30 18:50:08;;;;;;;;;0.00;0.00;;;;;;;;6307035;22;45238;-95
2022/09/30 18:52:33;;;;;;;;;0.00;0.00;;;;;;;;6275343;22;45374;-94
2022/09/30 18:54:58;;;;;;;;;0.00;0.00;;;;;;;;6275700;22;46977;-94
2022/09/30 18:57:23;;;;;;;;;0.00;0.00;;;;;;;;6276921;22;45402;-95
2022/09/30 18:59:48;;;;;;;;;0.00;0.00;;;;;;;;6287568;22;45410;-95
2022/09/30 19:02:16;;;;;;;;;0.00;0.00;;;;;;;;6281197;22;45564;-95
2022/09/30 19:04:41;;;;;;;;;6.00;6.00;;;;;;;;6274367;22;47001;-94
2022/09/30 19:07:07;;;;;;;;;0.00;0.00;;;;;;;;6274920;22;45525;-91
2022/09/30 19:09:32;;;;;;;;;0.00;0.00;;;;;;;;6279495;22;45403;-95
2022/09/30 19:11:58;;;;;;;;;0.00;0.00;;;;;;;;6278825;22;45148;-95
2022/09/30 19:14:24;;;;;;;;;0.00;0.00;;;;;;;;6279114;22;47158;-95
2022/09/30 19:19:24;;;;;;;;;0.00;0.00;;;;;;;;6295238;22;46155;-94
2022/09/30 19:21:49;;;;;;;;;0.00;0.00;;;;;;;;6308032;22;45764;-93
2022/09/30 19:24:15;;;;;;;;;0.00;0.00;;;;;;;;6276516;22;47936;-95
2022/09/30 19:26:41;;;;;;;;;0.00;0.00;;;;;;;;6276479;22;45349;-94
2022/09/30 19:29:09;;;;;;;;;0.00;0.00;;;;;;;;6314720;22;45179;-96
2022/09/30 19:31:36;;;;;;;;;0.00;0.00;;;;;;;;6295268;22;45326;-95
2022/09/30 19:34:03;;;;;;;;;0.00;0.00;;;;;;;;6327277;22;45095;-96
2022/09/30 19:39:04;;;;;;;;;0.00;0.00;;;;;;;;6296493;22;45249;-92
2022/09/30 19:41:30;;;;;;;;;0.00;0.00;;;;;;;;6287758;22;45195;-96
2022/09/30 19:43:56;;;;;;;;;0.00;0.00;;;;;;;;6282264;22;48051;-95
2022/09/30 19:46:22;;;;;;;;;0.00;0.00;;;;;;;;6268469;22;45542;-92
2022/09/30 19:48:47;;;;;;;;;0.00;0.00;;;;;;;;6269943;22;45396;-92
2022/09/30 19:51:15;;;;;;;;;0.67;0.67;;;;;;;;6273841;22;45683;-91
2022/09/30 19:53:42;;;;;;;;;0.00;0.00;;;;;;;;6271757;22;46760;-92
2022/09/30 19:56:11;;;;;;;;;0.00;0.00;;;;;;;;6271561;22;45428;-93
2022/09/30 19:58:36;;;;;;;;;0.00;0.00;;;;;;;;6272757;22;45349;-91
2022/09/30 20:01:02;;;;;;;;;0.00;0.00;;;;;;;;6302022;22;45382;-89
2022/09/30 20:03:29;;;;;;;;;0.00;0.00;;;;;;;;6301345;22;45507;-90
2022/09/30 20:06:02;;;;;;;;;0.00;0.00;;;;;;;;6271937;22;45558;-91
2022/09/30 20:08:28;;;;;;;;;0.00;0.00;;;;;;;;6274682;22;45532;-92
2022/09/30 20:10:59;;;;;;;;;0.00;0.00;;;;;;;;6285093;22;45834;-92
2022/09/30 20:13:25;;;;;;;;;0.00;0.00;;;;;;;;6291861;22;46222;-91
2022/09/30 20:15:50;;;;;;;;;0.00;0.00;;;;;;;;6294656;22;44616;-91
2022/09/30 20:18:16;;;;;;;;;1.00;1.00;;;;;;;;6324474;22;44593;-91
2022/09/30 20:20:44;;;;;;;;;0.00;0.00;;;;;;;;6324279;22;39755;-92
2022/09/30 20:23:09;;;;;;;;;0.00;0.00;;;;;;;;6301970;22;45560;-91
2022/09/30 20:25:35;;;;;;;;;0.00;0.00;;;;;;;;6297621;22;29997;-91
2022/09/30 20:28:00;;;;;;;;;0.00;0.00;;;;;;;;6325455;22;28347;-92
2022/09/30 20:30:28;;;;;;;;;0.00;0.00;;;;;;;;6323778;22;28162;-90
2022/09/30 20:32:53;;;;;;;;;0.00;0.00;;;;;;;;6298299;22;30058;-91
2022/09/30 20:35:20;;;;;;;;;0.00;0.00;;;;;;;;6297985;22;28865;-91
2022/09/30 20:37:45;;;;;;;;;0.00;0.00;;;;;;;;6307554;22;28391;-96
2022/09/30 21:19:05;;;;;;;;;0.00;0.00;;;;;;;;6325792;22;28754;-96
2022/09/30 21:31:50;;;;;;;;;0.00;0.00;;;;;;;;6328194;22;27937;-96
2022/09/30 21:34:16;;;;;;;;;0.00;0.00;;;;;;;;6341447;22;28571;-96
2022/09/30 21:36:42;;;;;;;;;0.00;0.00;;;;;;;;6311883;22;28480;-95
2022/09/30 21:39:10;;;;;;;;;0.00;0.00;;;;;;;;6313206;22;27873;-96
2022/09/30 21:41:36;;;;;;;;;0.00;0.00;;;;;;;;6296861;22;28474;-96
2022/09/30 21:44:04;;;;;;;;;1.00;1.00;;;;;;;;6321811;22;29675;-95
2022/09/30 21:46:30;;;;;;;;;0.00;0.00;;;;;;;;6295419;22;28492;-96
2022/09/30 21:49:09;;;;;;;;;0.00;0.00;;;;;;;;6318753;22;28296;-96
2022/09/30 21:51:59;;;;;;;;;0.00;0.00;;;;;;;;6318750;22;27856;-96
2022/09/30 21:54:27;;;;;;;;;0.00;0.00;;;;;;;;6321839;22;28234;-96
2022/09/30 21:56:55;;;;;;;;;0.00;0.00;;;;;;;;6321802;22;27728;-96
2022/09/30 21:59:24;;;;;;;;;0.00;0.00;;;;;;;;6288268;22;27804;-96
2022/09/30 22:01:54;;;;;;;;;0.00;0.00;;;;;;;;6318763;22;27862;-96
2022/09/30 22:04:46;;;;;;;;;0.00;0.00;;;;;;;;6345326;22;29785;-96
2022/09/30 22:07:15;;;;;;;;;0.00;0.00;;;;;;;;6347871;22;27680;-96
2022/09/30 22:09:48;;;;;;;;;0.00;0.00;;;;;;;;6317984;22;27830;-96
2022/09/30 22:12:13;;;;;;;;;0.00;0.00;;;;;;;;6290337;22;27819;-96
2022/09/30 22:14:52;;;;;;;;;0.00;0.00;;;;;;;;6348193;22;28560;-96
2022/09/30 22:17:39;;;;;;;;;0.00;0.00;;;;;;;;6302195;22;28328;-96
2022/09/30 22:38:51;;;;;;;;;0.00;0.00;;;;;;;;6314247;22;28122;-96
2022/09/30 22:41:17;;;;;;;;;0.00;0.00;;;;;;;;6346249;22;28153;-96
2022/09/30 22:43:42;;;;;;;;;0.00;0.00;;;;;;;;6322797;22;35838;-96
2022/09/30 22:46:10;;;;;;;;;0.00;0.00;;;;;;;;6318190;22;29718;-96
2022/09/30 22:48:36;;;;;;;;;0.00;0.00;;;;;;;;6306028;22;28060;-96
2022/09/30 22:51:01;;;;;;;;;0.00;0.00;;;;;;;;6316182;22;27822;-95
2022/09/30 22:53:27;;;;;;;;;0.00;0.00;;;;;;;;6314752;22;27941;-96
2022/09/30 23:08:56;;;;;;;;;0.00;0.00;;;;;;;;6298007;22;28106;-96
2022/09/30 23:19:07;;;;;;;;;0.00;0.00;;;;;;;;6306764;22;27823;-96
2022/09/30 23:21:32;;;;;;;;;0.00;0.00;;;;;;;;6287470;22;27866;-94
2022/09/30 23:47:17;;;;;;;;;0.00;0.00;;;;;;;;6263907;22;29442;-96
2022/09/30 23:52:17;;;;;;;;;0.00;0.00;;;;;;;;6309570;22;35180;-95
2022/09/30 23:54:42;;;;;;;;;0.00;0.00;;;;;;;;6288215;22;27913;-96
2022/09/30 23:57:09;;;;;;;;;0.00;0.00;;;;;;;;6224304;22;29951;-96
